Time;durP1;ratioP1;P1;durP2;ratioP2;P2;SDS_P1;SDS_P2;PMS_P1;PMS_P2;Temp;Humidity;BMP_temperature;BMP_pressure;BME280_temperature;BME280_humidity;BME280_pressure;Samples;Min_cycle;Max_cycle;Signal;HPM_P1;HPM_P2
2023/01/10 00:01:07;;;;;;;2.72;2.63;;;4.40;99.90;;;;;;4985388;28;20447;-77
2023/01/10 00:03:34;;;;;;;2.33;2.22;;;4.40;99.90;;;;;;4984474;28;20240;-77
2023/01/10 00:06:02;;;;;;;2.35;2.25;;;4.30;99.90;;;;;;4981786;28;20220;-77
2023/01/10 00:08:30;;;;;;;2.55;2.45;;;4.30;99.90;;;;;;4970289;28;20257;-76
2023/01/10 00:13:22;;;;;;;2.78;2.67;;;4.20;99.90;;;;;;4983201;28;20706;-76
2023/01/10 00:13:45;;;;;;;2.47;2.38;;;4.20;99.90;;;;;;4987291;28;20225;-76
2023/01/10 00:16:13;;;;;;;2.42;2.33;;;4.10;99.90;;;;;;4982039;28;20272;-77
2023/01/10 00:18:40;;;;;;;2.33;2.22;;;4.10;99.90;;;;;;4970666;28;20200;-76
2023/01/10 00:21:08;;;;;;;2.42;2.33;;;4.10;99.90;;;;;;4978608;28;20733;-76
2023/01/10 00:23:35;;;;;;;2.35;2.25;;;4.10;99.90;;;;;;4983018;28;20220;-76
2023/01/10 00:26:05;;;;;;;2.38;2.28;;;4.10;99.90;;;;;;4982655;28;20315;-76
2023/01/10 00:28:33;;;;;;;2.35;2.25;;;4.10;99.90;;;;;;4967625;28;20227;-76
2023/01/10 00:31:05;;;;;;;2.47;2.38;;;4.10;99.90;;;;;;4982610;28;20220;-76
2023/01/10 00:33:33;;;;;;;2.42;2.33;;;4.10;99.90;;;;;;4987434;28;20224;-77
2023/01/10 00:36:00;;;;;;;2.38;2.28;;;4.10;99.90;;;;;;4969810;28;20287;-76
2023/01/10 00:38:29;;;;;;;2.60;2.50;;;4.10;99.90;;;;;;4983364;28;20263;-76
2023/01/10 00:40:58;;;;;;;2.67;2.58;;;4.20;99.90;;;;;;4988795;28;20213;-76
2023/01/10 00:46:12;;;;;;;2.42;2.33;;;4.20;99.90;;;;;;4988183;28;20231;-76
2023/01/10 00:48:39;;;;;;;2.40;2.30;;;4.10;99.90;;;;;;4990443;28;20227;-76
2023/01/10 00:51:07;;;;;;;2.63;2.53;;;4.10;99.90;;;;;;4965377;28;20225;-76
2023/01/10 00:53:34;;;;;;;2.42;2.33;;;4.10;99.90;;;;;;4969406;28;20209;-76
2023/01/10 00:56:02;;;;;;;2.15;2.05;;;4.10;99.90;;;;;;4968808;28;20221;-76
2023/01/10 00:58:31;;;;;;;2.55;2.45;;;4.00;99.90;;;;;;4968715;28;20305;-76
2023/01/10 01:00:59;;;;;;;2.30;2.20;;;4.00;99.90;;;;;;4983803;28;20820;-76
2023/01/10 01:03:26;;;;;;;2.28;2.17;;;3.90;99.90;;;;;;4983903;28;20641;-76
2023/01/10 01:05:53;;;;;;;2.50;2.40;;;3.90;99.90;;;;;;4981822;28;20219;-77
2023/01/10 01:08:20;;;;;;;2.22;2.13;;;4.00;99.90;;;;;;4981353;28;20224;-76
2023/01/10 01:10:48;;;;;;;2.17;2.08;;;4.00;99.90;;;;;;4983799;28;20229;-76
2023/01/10 01:13:18;;;;;;;2.70;2.60;;;4.00;99.90;;;;;;4986171;28;20217;-76
2023/01/10 01:15:47;;;;;;;2.40;2.30;;;3.90;99.90;;;;;;4963985;28;20272;-77
2023/01/10 01:18:17;;;;;;;2.35;2.25;;;3.90;99.90;;;;;;4983976;28;20204;-76
2023/01/10 01:20:45;;;;;;;2.30;2.20;;;3.80;99.90;;;;;;4983699;28;20228;-76
2023/01/10 01:23:12;;;;;;;2.40;2.30;;;3.80;99.90;;;;;;4985816;28;20292;-77
2023/01/10 01:25:40;;;;;;;2.30;2.20;;;3.80;99.90;;;;;;4985253;28;20279;-76
2023/01/10 01:28:08;;;;;;;2.30;2.20;;;3.80;99.90;;;;;;4983874;28;20224;-77
2023/01/10 01:30:35;;;;;;;2.50;2.40;;;3.80;99.90;;;;;;4967157;28;20252;-76
2023/01/10 01:33:05;;;;;;;2.38;2.28;;;3.80;99.90;;;;;;4983767;28;20618;-76
2023/01/10 01:35:32;;;;;;;2.55;2.45;;;3.80;99.90;;;;;;4981959;28;20225;-76
2023/01/10 01:37:59;;;;;;;2.47;2.38;;;3.80;99.90;;;;;;4987776;28;20759;-76
2023/01/10 01:40:27;;;;;;;2.72;2.63;;;3.80;99.90;;;;;;4984416;28;20222;-76
2023/01/10 01:42:55;;;;;;;1.90;1.80;;;3.80;99.90;;;;;;4985847;28;20675;-76
2023/01/10 01:45:37;;;;;;;2.40;2.30;;;3.70;99.90;;;;;;4984639;28;20225;-77
2023/01/10 01:48:22;;;;;;;2.47;2.38;;;3.70;99.90;;;;;;4988094;28;20753;-76
2023/01/10 01:50:56;;;;;;;2.55;2.45;;;3.80;99.90;;;;;;4993912;28;20224;-76
2023/01/10 01:53:30;;;;;;;2.50;2.40;;;3.80;99.90;;;;;;4990704;28;20240;-76
2023/01/10 01:56:01;;;;;;;2.60;2.50;;;3.80;99.90;;;;;;4991239;28;20216;-76
2023/01/10 01:58:34;;;;;;;2.22;2.13;;;3.80;99.90;;;;;;4976693;28;20202;-76
2023/01/10 02:01:02;;;;;;;2.50;2.40;;;3.70;99.90;;;;;;4971703;28;20219;-76
2023/01/10 02:03:32;;;;;;;2.47;2.38;;;3.60;99.90;;;;;;5006549;28;20235;-77
2023/01/10 02:06:00;;;;;;;2.28;2.17;;;3.50;99.90;;;;;;4997581;28;20224;-76
2023/01/10 02:08:28;;;;;;;2.25;2.15;;;3.40;99.90;;;;;;4977112;28;20213;-76
2023/01/10 02:11:02;;;;;;;2.30;2.20;;;3.40;99.90;;;;;;4991900;28;20229;-76
2023/01/10 02:13:31;;;;;;;2.70;2.60;;;3.40;99.90;;;;;;4989254;28;20222;-77
2023/01/10 02:15:58;;;;;;;2.40;2.30;;;3.40;99.90;;;;;;4994336;28;20220;-76
2023/01/10 02:18:26;;;;;;;2.17;2.08;;;3.30;99.90;;;;;;4974185;28;20205;-77
2023/01/10 02:21:19;;;;;;;2.55;2.45;;;3.30;99.90;;;;;;4988029;28;20237;-76
2023/01/10 02:24:31;;;;;;;2.20;2.10;;;3.30;99.90;;;;;;4992452;28;20235;-76
2023/01/10 02:27:34;;;;;;;2.60;2.50;;;3.30;99.90;;;;;;4989873;28;20224;-76
2023/01/10 02:30:37;;;;;;;2.50;2.40;;;3.30;99.90;;;;;;4988917;28;20239;-76
2023/01/10 02:33:13;;;;;;;2.58;2.47;;;3.30;99.90;;;;;;4978255;28;20211;-76
2023/01/10 02:35:55;;;;;;;2.20;2.10;;;3.30;99.90;;;;;;4991091;28;20228;-76
2023/01/10 02:38:43;;;;;;;2.22;2.13;;;3.50;99.90;;;;;;4991547;28;20204;-76
2023/01/10 02:41:19;;;;;;;2.22;2.13;;;3.60;99.90;;;;;;4974719;28;20221;-77
2023/01/10 02:43:51;;;;;;;2.58;2.47;;;3.60;99.90;;;;;;4979195;28;20628;-76
2023/01/10 02:46:24;;;;;;;2.30;2.20;;;3.50;99.90;;;;;;4983654;28;20311;-76
2023/01/10 02:48:54;;;;;;;2.20;2.10;;;3.40;99.90;;;;;;4980335;28;20245;-76
2023/01/10 02:51:24;;;;;;;2.35;2.25;;;3.30;99.90;;;;;;4974503;28;20665;-76
2023/01/10 02:53:58;;;;;;;2.53;2.42;;;3.30;99.90;;;;;;4989836;28;20228;-76
2023/01/10 02:57:04;;;;;;;2.30;2.20;;;3.30;99.90;;;;;;4991758;28;20279;-76
2023/01/10 03:00:03;;;;;;;2.50;2.40;;;3.30;99.90;;;;;;4986125;28;20225;-76
2023/01/10 03:02:50;;;;;;;2.25;2.15;;;3.30;99.90;;;;;;4967411;28;20237;-76
2023/01/10 03:05:28;;;;;;;2.63;2.53;;;3.30;99.90;;;;;;4980337;28;20229;-76
2023/01/10 03:08:06;;;;;;;2.05;2.00;;;3.30;99.90;;;;;;4989477;28;20223;-76
2023/01/10 03:10:42;;;;;;;2.22;2.13;;;3.20;99.90;;;;;;4987286;28;20220;-77
2023/01/10 03:13:16;;;;;;;2.33;2.22;;;3.10;99.90;;;;;;4973442;28;20211;-77
2023/01/10 03:15:44;;;;;;;2.55;2.45;;;3.10;99.90;;;;;;4955009;28;20304;-76
2023/01/10 03:18:16;;;;;;;2.40;2.30;;;3.10;99.90;;;;;;4974771;28;20256;-77
2023/01/10 03:20:47;;;;;;;2.35;2.25;;;3.10;99.90;;;;;;5005883;28;20654;-77
2023/01/10 03:23:16;;;;;;;2.60;2.50;;;3.10;99.90;;;;;;4985674;28;20228;-76
2023/01/10 03:25:46;;;;;;;2.13;2.03;;;3.20;99.90;;;;;;4988329;28;20227;-76
2023/01/10 03:28:16;;;;;;;2.50;2.40;;;3.50;99.90;;;;;;4987516;28;20225;-76
2023/01/10 03:30:49;;;;;;;2.50;2.40;;;3.60;99.90;;;;;;4987024;28;20228;-76
2023/01/10 03:33:21;;;;;;;2.53;2.42;;;3.60;99.90;;;;;;4984492;28;20225;-76
2023/01/10 03:36:04;;;;;;;2.38;2.28;;;3.60;99.90;;;;;;4984274;28;20217;-76
2023/01/10 03:38:40;;;;;;;2.88;2.78;;;3.50;99.90;;;;;;4987358;28;20223;-76
2023/01/10 03:41:13;;;;;;;2.70;2.60;;;3.40;99.90;;;;;;4987601;28;20231;-76
2023/01/10 03:46:38;;;;;;;2.42;2.33;;;3.30;99.90;;;;;;4992564;28;20215;-76
2023/01/10 03:49:08;;;;;;;2.47;2.38;;;3.30;99.90;;;;;;4986393;28;20718;-76
2023/01/10 03:51:38;;;;;;;2.60;2.50;;;3.30;99.90;;;;;;4971491;28;20232;-76
2023/01/10 03:54:06;;;;;;;2.55;2.45;;;3.30;99.90;;;;;;4974713;28;20279;-76
2023/01/10 03:56:45;;;;;;;2.45;2.35;;;3.30;99.90;;;;;;4988307;28;20244;-76
2023/01/10 03:59:13;;;;;;;2.58;2.47;;;3.30;99.90;;;;;;4986154;28;20259;-77
2023/01/10 04:01:40;;;;;;;2.20;2.10;;;3.30;99.90;;;;;;4988603;28;20200;-76
2023/01/10 04:04:07;;;;;;;2.40;2.30;;;3.20;99.90;;;;;;4983399;28;20584;-76
2023/01/10 04:06:38;;;;;;;2.60;2.50;;;3.20;99.90;;;;;;4988195;28;20213;-76
2023/01/10 04:09:05;;;;;;;2.40;2.30;;;3.20;99.90;;;;;;4987161;28;20229;-76
2023/01/10 04:11:32;;;;;;;2.47;2.38;;;3.20;99.90;;;;;;4988822;28;20232;-77
2023/01/10 04:14:00;;;;;;;2.45;2.25;;;3.30;99.90;;;;;;4988723;28;20312;-76
2023/01/10 04:16:27;;;;;;;2.40;2.30;;;3.20;99.90;;;;;;4972422;28;20221;-76
2023/01/10 04:18:54;;;;;;;2.40;2.30;;;3.20;99.90;;;;;;4991458;28;20209;-77
2023/01/10 04:21:23;;;;;;;2.08;2.08;;;3.20;99.90;;;;;;4984896;28;20225;-77
2023/01/10 04:23:53;;;;;;;2.60;2.50;;;3.10;99.90;;;;;;4986789;28;20229;-77
2023/01/10 04:26:20;;;;;;;2.78;2.65;;;3.10;99.90;;;;;;4984181;28;20307;-77
2023/01/10 04:28:48;;;;;;;2.40;2.30;;;3.10;99.90;;;;;;4971800;28;20224;-76
2023/01/10 04:31:15;;;;;;;2.50;2.40;;;3.10;99.90;;;;;;4989640;28;20225;-76
2023/01/10 04:33:42;;;;;;;2.42;2.33;;;3.10;99.90;;;;;;4990833;28;20224;-77
2023/01/10 04:36:09;;;;;;;2.50;2.40;;;3.20;99.90;;;;;;4991203;28;20228;-77
2023/01/10 04:38:37;;;;;;;2.80;2.70;;;3.20;99.90;;;;;;4990869;28;21637;-76
2023/01/10 04:41:06;;;;;;;2.45;2.35;;;3.20;99.90;;;;;;4981503;28;20221;-76
2023/01/10 04:43:33;;;;;;;2.33;2.22;;;3.20;99.90;;;;;;4971475;28;20272;-76
2023/01/10 04:46:01;;;;;;;2.30;2.20;;;3.10;99.90;;;;;;4985515;28;20275;-76
2023/01/10 04:48:28;;;;;;;2.60;2.50;;;3.10;99.90;;;;;;4975369;28;20225;-76
2023/01/10 04:50:55;;;;;;;2.72;2.63;;;3.00;99.90;;;;;;4984476;28;20217;-76
2023/01/10 04:53:23;;;;;;;2.67;2.58;;;3.00;99.90;;;;;;4984635;28;20221;-76
2023/01/10 04:55:50;;;;;;;2.80;2.70;;;3.00;99.90;;;;;;4987209;28;20225;-76
2023/01/10 04:58:19;;;;;;;2.60;2.50;;;3.10;99.90;;;;;;4989107;28;20201;-77
2023/01/10 05:00:46;;;;;;;2.50;2.40;;;3.00;99.90;;;;;;4985857;28;20220;-76
2023/01/10 05:03:16;;;;;;;2.58;2.47;;;3.00;99.90;;;;;;4987384;28;20684;-76
2023/01/10 05:05:43;;;;;;;2.50;2.40;;;3.10;99.90;;;;;;4983817;28;20217;-76
2023/01/10 05:08:11;;;;;;;2.47;2.38;;;3.00;99.90;;;;;;4986364;28;20671;-76
2023/01/10 05:10:38;;;;;;;2.58;2.47;;;3.00;99.90;;;;;;4984733;28;20777;-76
2023/01/10 05:13:05;;;;;;;2.50;2.40;;;2.90;99.90;;;;;;4983683;28;20204;-76
2023/01/10 05:15:34;;;;;;;2.40;2.30;;;2.90;99.90;;;;;;4970120;28;20229;-76
2023/01/10 05:18:02;;;;;;;2.55;2.45;;;2.90;99.90;;;;;;4986630;28;20201;-76
2023/01/10 05:20:29;;;;;;;2.20;2.10;;;2.90;99.90;;;;;;4979684;28;20223;-76
2023/01/10 05:22:57;;;;;;;2.97;2.85;;;2.90;99.90;;;;;;4982690;28;20255;-77
2023/01/10 05:25:24;;;;;;;2.58;2.47;;;2.90;99.90;;;;;;4983030;28;20307;-76
2023/01/10 05:27:52;;;;;;;2.55;2.45;;;3.00;99.90;;;;;;4986821;28;20200;-76
2023/01/10 05:30:19;;;;;;;2.53;2.42;;;3.10;99.90;;;;;;4983316;28;20707;-76
2023/01/10 05:32:48;;;;;;;2.97;2.88;;;3.30;99.90;;;;;;4986890;28;20232;-76
2023/01/10 05:35:16;;;;;;;2.53;2.42;;;3.40;99.90;;;;;;4969228;28;20773;-76
2023/01/10 05:37:44;;;;;;;2.30;2.20;;;3.40;99.90;;;;;;4984611;28;20197;-76
2023/01/10 05:40:12;;;;;;;2.65;2.45;;;3.30;99.90;;;;;;4984874;28;20257;-76
2023/01/10 05:42:40;;;;;;;2.63;2.53;;;3.30;99.90;;;;;;4973245;28;20264;-76
2023/01/10 05:45:08;;;;;;;2.75;2.65;;;3.40;99.90;;;;;;4972306;28;20275;-76
2023/01/10 05:47:35;;;;;;;2.53;2.42;;;3.40;99.90;;;;;;4981988;28;20202;-76
2023/01/10 05:50:05;;;;;;;2.63;2.53;;;3.40;99.90;;;;;;4986183;28;20236;-76
2023/01/10 05:52:33;;;;;;;2.45;2.35;;;3.50;99.90;;;;;;4986869;28;20214;-76
2023/01/10 05:55:00;;;;;;;2.35;2.25;;;3.50;99.90;;;;;;5003852;28;20231;-76
2023/01/10 05:57:28;;;;;;;2.67;2.58;;;3.50;99.90;;;;;;4985718;28;21729;-76
2023/01/10 05:59:56;;;;;;;2.42;2.33;;;3.40;99.90;;;;;;4971570;28;20713;-76
2023/01/10 06:02:25;;;;;;;2.60;2.50;;;3.40;99.90;;;;;;4982798;28;20203;-75
2023/01/10 06:04:54;;;;;;;2.63;2.53;;;3.40;99.90;;;;;;4986789;28;20637;-76
2023/01/10 06:07:22;;;;;;;2.60;2.50;;;3.40;99.90;;;;;;4972057;28;20220;-76
2023/01/10 06:09:50;;;;;;;2.50;2.40;;;3.50;99.90;;;;;;4983274;28;20221;-76
2023/01/10 06:12:18;;;;;;;2.35;2.25;;;3.50;99.90;;;;;;4985956;28;20287;-76
2023/01/10 06:14:46;;;;;;;2.55;2.45;;;3.50;99.90;;;;;;4972423;28;20229;-76
2023/01/10 06:17:13;;;;;;;2.42;2.33;;;3.50;99.90;;;;;;4987149;28;20267;-77
2023/01/10 06:19:41;;;;;;;2.67;2.58;;;3.40;99.90;;;;;;4984841;28;20216;-77
2023/01/10 06:22:08;;;;;;;2.60;2.38;;;3.40;99.90;;;;;;4988553;28;20201;-76
2023/01/10 06:24:37;;;;;;;2.08;1.98;;;3.40;99.90;;;;;;4972276;28;20283;-77
2023/01/10 06:27:04;;;;;;;2.30;2.20;;;3.40;99.90;;;;;;4986653;28;20197;-76
2023/01/10 06:29:32;;;;;;;2.50;2.40;;;3.40;99.90;;;;;;4977951;28;20228;-77
2023/01/10 06:32:00;;;;;;;2.63;2.53;;;3.40;99.90;;;;;;4986630;28;20243;-77
2023/01/10 06:34:27;;;;;;;2.60;2.50;;;3.40;99.90;;;;;;4984191;28;20213;-77
2023/01/10 06:36:54;;;;;;;2.45;2.35;;;3.30;99.90;;;;;;4984698;28;20197;-76
2023/01/10 06:39:22;;;;;;;2.50;2.40;;;3.30;99.90;;;;;;4983223;28;20201;-76
2023/01/10 06:41:50;;;;;;;2.50;2.40;;;3.40;99.90;;;;;;4986788;28;20204;-76
2023/01/10 06:44:18;;;;;;;3.10;2.90;;;3.40;99.90;;;;;;4980979;28;20216;-76
2023/01/10 06:46:45;;;;;;;2.80;2.70;;;3.40;99.90;;;;;;4979324;28;20196;-76
2023/01/10 06:49:13;;;;;;;2.60;2.50;;;3.40;99.90;;;;;;4971438;28;20221;-77
2023/01/10 06:51:40;;;;;;;2.45;2.35;;;3.40;99.90;;;;;;4989755;28;20207;-76
2023/01/10 06:54:07;;;;;;;2.60;2.50;;;3.40;99.90;;;;;;4992782;28;20261;-76
2023/01/10 06:56:34;;;;;;;2.90;2.80;;;3.50;99.90;;;;;;4973648;28;20239;-76
2023/01/10 06:59:03;;;;;;;2.65;2.55;;;3.60;99.90;;;;;;4989404;28;20212;-76
2023/01/10 07:01:31;;;;;;;2.50;2.40;;;3.70;99.90;;;;;;4988154;28;20717;-76
2023/01/10 07:03:58;;;;;;;2.47;2.38;;;3.80;99.90;;;;;;4993277;28;20228;-76
2023/01/10 07:06:25;;;;;;;2.45;2.35;;;3.80;99.90;;;;;;4975241;28;20730;-76
2023/01/10 07:08:56;;;;;;;2.47;2.30;;;3.80;99.90;;;;;;4990707;28;20760;-76
2023/01/10 07:11:23;;;;;;;2.67;2.58;;;3.80;99.90;;;;;;5013921;28;20286;-76
2023/01/10 07:13:52;;;;;;;2.40;2.30;;;3.80;99.90;;;;;;4988801;28;20213;-76
2023/01/10 07:16:21;;;;;;;2.58;2.47;;;3.80;99.90;;;;;;4993594;28;20223;-76
2023/01/10 07:18:48;;;;;;;2.60;2.50;;;3.80;99.90;;;;;;4992507;28;20553;-76
2023/01/10 07:21:18;;;;;;;2.58;2.47;;;3.80;99.90;;;;;;4991779;28;20225;-76
2023/01/10 07:23:49;;;;;;;2.67;2.58;;;3.90;99.90;;;;;;4986805;28;20217;-76
2023/01/10 07:26:18;;;;;;;2.50;2.40;;;3.90;99.90;;;;;;4969018;28;20252;-76
2023/01/10 07:28:45;;;;;;;2.58;2.47;;;3.90;99.90;;;;;;4987274;28;20255;-76
2023/01/10 07:31:12;;;;;;;3.13;2.92;;;3.90;99.90;;;;;;4989706;28;20309;-76
2023/01/10 07:33:41;;;;;;;2.70;2.60;;;3.90;99.90;;;;;;4972617;28;21069;-76
2023/01/10 07:36:09;;;;;;;2.42;2.33;;;3.90;99.90;;;;;;4990605;28;20224;-76
2023/01/10 07:38:38;;;;;;;2.30;2.20;;;3.90;99.90;;;;;;4983643;28;20212;-76
2023/01/10 07:41:06;;;;;;;2.33;2.22;;;3.90;99.90;;;;;;4978102;28;20241;-76
2023/01/10 07:43:34;;;;;;;2.65;2.35;;;3.90;99.90;;;;;;4986747;28;20244;-76
2023/01/10 07:46:03;;;;;;;2.85;2.75;;;3.90;99.90;;;;;;4987985;28;20228;-77
2023/01/10 07:48:31;;;;;;;2.80;2.70;;;3.90;99.90;;;;;;4966182;28;20201;-76
2023/01/10 07:51:02;;;;;;;2.88;2.67;;;3.80;99.90;;;;;;4985218;28;20228;-76
2023/01/10 07:53:29;;;;;;;2.65;2.55;;;3.90;99.90;;;;;;4967087;28;20221;-76
2023/01/10 07:56:00;;;;;;;3.78;3.58;;;3.80;99.90;;;;;;4971732;28;20225;-76
2023/01/10 07:58:28;;;;;;;2.85;2.75;;;3.80;99.90;;;;;;4982211;28;20216;-77
2023/01/10 08:00:58;;;;;;;3.05;2.95;;;3.80;99.90;;;;;;4988300;28;20244;-77
2023/01/10 08:03:26;;;;;;;3.35;3.15;;;3.90;99.90;;;;;;4984769;28;20707;-77
2023/01/10 08:06:00;;;;;;;3.05;2.85;;;3.90;99.90;;;;;;4988299;28;20638;-77
2023/01/10 08:08:27;;;;;;;3.22;3.08;;;4.00;99.90;;;;;;4969371;28;20735;-77
2023/01/10 08:10:58;;;;;;;2.67;2.47;;;4.00;99.90;;;;;;4980838;28;20379;-76
2023/01/10 08:13:25;;;;;;;3.65;3.35;;;4.10;99.90;;;;;;4969010;28;20299;-76
2023/01/10 08:15:53;;;;;;;3.65;3.35;;;4.00;99.90;;;;;;4983102;28;20225;-76
2023/01/10 08:18:24;;;;;;;3.65;3.35;;;3.90;99.90;;;;;;4980754;28;20197;-76
2023/01/10 08:20:52;;;;;;;3.90;3.60;;;3.80;99.90;;;;;;4981948;28;20217;-77
2023/01/10 08:23:21;;;;;;;3.80;3.50;;;3.70;99.90;;;;;;4967773;28;20289;-75
2023/01/10 08:25:50;;;;;;;3.60;3.40;;;4.20;99.90;;;;;;4988659;28;20220;-74
2023/01/10 08:28:17;;;;;;;3.38;3.10;;;5.40;99.90;;;;;;4997026;28;20201;-75
2023/01/10 08:30:45;;;;;;;3.20;3.00;;;6.40;99.90;;;;;;4982399;28;20644;-75
2023/01/10 08:33:13;;;;;;;2.95;2.80;;;7.20;99.90;;;;;;4981857;28;20213;-76
2023/01/10 08:35:42;;;;;;;3.25;3.05;;;7.70;99.90;;;;;;4975311;28;20248;-74
2023/01/10 08:38:11;;;;;;;2.90;2.70;;;8.20;99.90;;;;;;4965975;28;20208;-80
2023/01/10 08:40:41;;;;;;;3.20;3.00;;;8.60;99.90;;;;;;4992667;28;20223;-79
2023/01/10 08:48:57;;;;;;;2.70;2.60;;;9.10;99.90;;;;;;4985128;28;20209;-77
2023/01/10 08:51:24;;;;;;;2.58;2.38;;;9.20;99.90;;;;;;4980329;28;20224;-75
2023/01/10 08:53:51;;;;;;;4.22;2.50;;;9.50;99.90;;;;;;4981493;28;21180;-74
2023/01/10 08:56:20;;;;;;;2.75;2.55;;;9.50;99.90;;;;;;4978758;28;20228;-73
2023/01/10 08:58:47;;;;;;;3.80;2.55;;;9.60;99.90;;;;;;4978457;28;20209;-76
2023/01/10 09:01:14;;;;;;;2.92;2.72;;;9.60;99.90;;;;;;4971759;28;20224;-75
2023/01/10 09:03:41;;;;;;;2.65;2.55;;;9.90;99.90;;;;;;4979867;28;20200;-77
2023/01/10 09:06:08;;;;;;;3.22;2.90;;;10.40;99.90;;;;;;4980456;28;20275;-76
2023/01/10 09:08:36;;;;;;;2.83;2.63;;;10.80;99.90;;;;;;4980722;28;20204;-75
2023/01/10 09:11:03;;;;;;;2.92;2.72;;;11.20;99.90;;;;;;4975501;28;20221;-77
2023/01/10 09:13:33;;;;;;;3.00;2.80;;;11.60;99.90;;;;;;4975545;28;20201;-75
2023/01/10 09:16:00;;;;;;;2.70;2.50;;;12.00;99.90;;;;;;4977348;28;20315;-77
2023/01/10 09:18:27;;;;;;;3.70;3.40;;;12.30;99.90;;;;;;4976323;28;20209;-80
2023/01/10 09:20:55;;;;;;;4.78;3.13;;;12.30;99.90;;;;;;4977296;28;20231;-78
2023/01/10 09:23:23;;;;;;;2.10;2.00;;;13.10;99.90;;;;;;4978114;28;20197;-79
2023/01/10 09:25:52;;;;;;;6.95;2.92;;;14.30;99.90;;;;;;4978407;28;20240;-79
2023/01/10 09:28:20;;;;;;;1.95;1.85;;;15.60;99.90;;;;;;4977576;28;20698;-76
2023/01/10 09:30:48;;;;;;;2.55;2.38;;;17.00;99.90;;;;;;4976863;28;20236;-76
2023/01/10 09:33:16;;;;;;;2.05;1.95;;;18.50;99.90;;;;;;4974408;28;20663;-79
2023/01/10 09:35:43;;;;;;;2.22;2.03;;;19.70;99.90;;;;;;4977992;28;20232;-76
2023/01/10 09:38:14;;;;;;;2.50;1.85;;;20.60;99.90;;;;;;4979286;28;20192;-73
2023/01/10 09:41:01;;;;;;;1.88;1.77;;;20.90;97.80;;;;;;4960254;28;20227;-78
2023/01/10 09:43:40;;;;;;;1.90;1.80;;;21.20;95.10;;;;;;4983425;28;20687;-78
2023/01/10 09:46:12;;;;;;;2.08;1.92;;;21.10;91.70;;;;;;4974841;28;20223;-81
2023/01/10 09:48:45;;;;;;;2.00;1.90;;;20.90;92.20;;;;;;4978394;28;20197;-78
2023/01/10 09:51:25;;;;;;;1.90;1.80;;;20.90;92.00;;;;;;4978365;28;20220;-80
2023/01/10 09:53:55;;;;;;;2.72;1.70;;;21.20;90.30;;;;;;4974152;28;20208;-77
2023/01/10 09:56:22;;;;;;;2.72;2.53;;;20.90;90.20;;;;;;4982311;28;20228;-77
2023/01/10 09:58:50;;;;;;;2.05;1.95;;;20.50;90.50;;;;;;4983455;28;20664;-77
2023/01/10 10:01:23;;;;;;;2.20;1.75;;;20.10;90.90;;;;;;4979634;28;20236;-78
2023/01/10 10:03:58;;;;;;;1.83;1.73;;;19.10;90.50;;;;;;4977610;28;20201;-84
2023/01/10 10:06:25;;;;;;;1.80;1.70;;;17.70;91.60;;;;;;4978718;28;20216;-78
2023/01/10 10:08:53;;;;;;;2.05;1.88;;;16.50;94.90;;;;;;4976862;28;20805;-80
2023/01/10 10:11:39;;;;;;;1.90;1.80;;;15.30;96.80;;;;;;4979815;28;20229;-77
2023/01/10 10:14:21;;;;;;;1.45;1.42;;;14.40;98.60;;;;;;4980512;28;20641;-79
2023/01/10 10:17:06;;;;;;;1.80;1.70;;;13.80;99.90;;;;;;4981893;28;20236;-84
2023/01/10 10:19:46;;;;;;;1.70;1.60;;;13.70;99.90;;;;;;4978798;28;20307;-77
2023/01/10 10:22:21;;;;;;;3.28;1.90;;;13.80;99.90;;;;;;4988533;28;20211;-75
2023/01/10 10:24:59;;;;;;;2.10;2.00;;;13.90;99.90;;;;;;4984275;28;20837;-79
2023/01/10 10:27:39;;;;;;;2.83;2.35;;;14.10;99.90;;;;;;4984046;28;20197;-84
2023/01/10 10:30:30;;;;;;;2.72;2.25;;;14.10;99.90;;;;;;4981913;28;20691;-78
2023/01/10 10:33:15;;;;;;;2.00;1.90;;;14.20;99.90;;;;;;4982371;28;20291;-78
2023/01/10 10:35:49;;;;;;;2.65;1.77;;;14.30;99.90;;;;;;4980012;28;20228;-78
2023/01/10 10:38:23;;;;;;;2.10;2.00;;;14.50;99.90;;;;;;4979749;28;20607;-79
2023/01/10 10:40:52;;;;;;;1.73;1.63;;;14.40;99.90;;;;;;4978558;28;20652;-79
2023/01/10 10:43:24;;;;;;;1.88;1.77;;;14.40;99.90;;;;;;4980092;28;20516;-81
2023/01/10 10:45:55;;;;;;;1.90;1.70;;;14.40;99.90;;;;;;4985164;28;20709;-80
2023/01/10 10:48:27;;;;;;;1.83;1.73;;;14.40;99.90;;;;;;4983528;28;20202;-79
2023/01/10 10:51:02;;;;;;;1.80;1.70;;;14.10;99.90;;;;;;4982686;28;20224;-76
2023/01/10 10:53:31;;;;;;;2.35;1.67;;;13.90;99.90;;;;;;4977103;28;20197;-81
2023/01/10 10:55:59;;;;;;;2.20;2.00;;;13.80;99.90;;;;;;4976267;28;20230;-79
2023/01/10 10:58:29;;;;;;;2.03;1.85;;;13.70;99.90;;;;;;4983564;28;20566;-80
2023/01/10 11:00:57;;;;;;;2.30;2.20;;;13.90;99.90;;;;;;4979457;28;20228;-87
2023/01/10 11:03:35;;;;;;;2.22;2.03;;;14.10;99.90;;;;;;4982456;28;20292;-81
2023/01/10 11:06:03;;;;;;;2.53;2.33;;;14.30;99.90;;;;;;4981926;28;20240;-80
2023/01/10 11:08:31;;;;;;;1.95;1.85;;;14.50;99.90;;;;;;4982570;28;20208;-77
2023/01/10 11:11:02;;;;;;;2.10;1.98;;;14.80;99.90;;;;;;4984549;28;20233;-79
2023/01/10 11:13:47;;;;;;;2.00;1.90;;;15.00;99.90;;;;;;4979009;28;20196;-83
2023/01/10 11:16:28;;;;;;;2.40;2.20;;;15.20;99.90;;;;;;4980232;28;20239;-81
2023/01/10 11:19:21;;;;;;;2.67;2.10;;;15.60;99.90;;;;;;4975639;28;20212;-76
2023/01/10 11:21:53;;;;;;;2.85;2.05;;;15.80;99.90;;;;;;4966823;28;20555;-78
2023/01/10 11:24:28;;;;;;;1.70;1.60;;;15.90;99.90;;;;;;4984342;28;20220;-83
2023/01/10 11:26:56;;;;;;;2.13;1.95;;;15.80;99.90;;;;;;4976439;28;20275;-77
2023/01/10 11:29:27;;;;;;;1.67;1.58;;;15.70;99.90;;;;;;4978530;28;20624;-83
2023/01/10 11:31:56;;;;;;;2.22;2.03;;;15.40;99.90;;;;;;4973410;28;20224;-81
2023/01/10 11:34:28;;;;;;;1.70;1.60;;;15.20;99.90;;;;;;4974998;28;20201;-82
2023/01/10 11:36:58;;;;;;;2.00;1.90;;;15.30;99.90;;;;;;4980100;28;20201;-81
2023/01/10 11:39:26;;;;;;;1.80;1.70;;;15.80;99.90;;;;;;4976970;28;20608;-83
2023/01/10 11:41:54;;;;;;;1.92;1.70;;;16.00;99.90;;;;;;4981408;28;20204;-83
2023/01/10 11:44:25;;;;;;;2.00;1.90;;;16.50;99.90;;;;;;4980942;28;20205;-76
2023/01/10 11:46:55;;;;;;;1.60;1.50;;;16.90;99.90;;;;;;4982695;28;20220;-81
2023/01/10 11:49:30;;;;;;;1.48;1.48;;;17.10;99.90;;;;;;4984105;28;20220;-81
2023/01/10 11:52:00;;;;;;;3.53;1.52;;;17.20;99.00;;;;;;4976350;28;20233;-80
2023/01/10 11:54:30;;;;;;;1.83;1.73;;;16.70;98.50;;;;;;4980370;28;20459;-79
2023/01/10 11:56:58;;;;;;;1.50;1.40;;;16.50;99.80;;;;;;4979694;28;20213;-79
2023/01/10 11:59:27;;;;;;;1.35;1.25;;;16.60;98.70;;;;;;4988467;28;20220;-78
2023/01/10 12:01:58;;;;;;;1.77;1.48;;;16.70;99.30;;;;;;4974565;28;20711;-80
2023/01/10 12:04:31;;;;;;;1.33;1.23;;;16.80;99.60;;;;;;4982772;28;20202;-80
2023/01/10 12:07:03;;;;;;;1.73;1.40;;;16.70;99.10;;;;;;4982139;28;20201;-78
2023/01/10 12:09:39;;;;;;;1.67;1.58;;;16.50;98.50;;;;;;4987808;28;20713;-80
2023/01/10 12:12:16;;;;;;;1.45;1.33;;;16.20;98.20;;;;;;4977791;28;20217;-80
2023/01/10 12:14:43;;;;;;;1.52;1.20;;;16.00;97.20;;;;;;4979056;28;20271;-79
2023/01/10 12:17:22;;;;;;;2.45;1.30;;;15.70;96.80;;;;;;4979600;28;20259;-79
2023/01/10 12:19:52;;;;;;;1.13;1.13;;;15.50;95.00;;;;;;4979116;28;20243;-81
2023/01/10 12:22:21;;;;;;;1.00;1.00;;;15.30;95.40;;;;;;4979187;28;20201;-79
2023/01/10 12:24:49;;;;;;;1.95;1.25;;;15.20;94.90;;;;;;4984422;28;20699;-78
2023/01/10 12:27:18;;;;;;;1.13;1.13;;;15.20;94.90;;;;;;4980208;28;20222;-81
2023/01/10 12:29:50;;;;;;;1.10;1.10;;;15.10;94.50;;;;;;4981658;28;20650;-79
2023/01/10 12:32:35;;;;;;;0.90;0.90;;;15.00;94.40;;;;;;4981354;28;20229;-77
2023/01/10 12:35:10;;;;;;;1.10;1.10;;;15.00;93.90;;;;;;4978032;28;20229;-78
2023/01/10 12:37:43;;;;;;;1.20;1.20;;;14.90;93.30;;;;;;4976001;28;20196;-76
2023/01/10 12:40:15;;;;;;;2.25;2.05;;;14.90;93.90;;;;;;4977256;28;20634;-77
2023/01/10 12:45:42;;;;;;;4.25;1.58;;;14.80;93.20;;;;;;4935883;28;21078;-76
2023/01/10 12:48:15;;;;;;;1.63;1.30;;;14.80;92.80;;;;;;4980457;28;20773;-77
2023/01/10 12:50:47;;;;;;;1.27;1.17;;;14.70;92.50;;;;;;4976107;28;20221;-82
2023/01/10 12:53:25;;;;;;;1.50;1.40;;;14.70;92.10;;;;;;4981412;28;20216;-74
2023/01/10 12:55:56;;;;;;;1.15;1.15;;;14.70;91.90;;;;;;4982236;28;20240;-80
2023/01/10 12:58:28;;;;;;;1.27;1.17;;;14.50;91.60;;;;;;4977200;28;20189;-81
2023/01/10 13:00:59;;;;;;;1.23;1.20;;;14.40;92.10;;;;;;4978664;28;20227;-79
2023/01/10 13:03:29;;;;;;;1.13;1.13;;;14.30;91.10;;;;;;4980324;28;20205;-79
2023/01/10 13:05:59;;;;;;;1.15;1.15;;;14.20;91.70;;;;;;4982168;28;20275;-77
2023/01/10 13:08:29;;;;;;;1.33;1.23;;;14.20;91.80;;;;;;4972005;28;20197;-81
2023/01/10 13:10:58;;;;;;;1.15;1.15;;;14.20;91.60;;;;;;4980150;28;20231;-82
2023/01/10 13:13:33;;;;;;;1.20;1.20;;;14.20;91.70;;;;;;4978631;28;20204;-75
2023/01/10 13:16:16;;;;;;;1.13;1.13;;;14.30;91.80;;;;;;4981606;28;20250;-77
2023/01/10 13:18:59;;;;;;;2.92;1.05;;;14.20;91.50;;;;;;4974654;28;20467;-78
2023/01/10 13:21:29;;;;;;;0.85;0.85;;;14.20;90.00;;;;;;4976129;28;20248;-76
2023/01/10 13:24:00;;;;;;;1.10;1.00;;;14.10;90.50;;;;;;4981359;28;20487;-76
2023/01/10 13:26:27;;;;;;;0.90;0.90;;;14.00;90.60;;;;;;4980601;28;20315;-77